WetterOnline ( https://www.wetteronline.de )

Wetter aktuell Admannshagen-Bargeshagen

Aktuelles Wetter: Rostock-Warnemünde (10m)

6-stündlich | Neueste Meldungen
Ortszeit Temperatur Wetter
Di, 10.12. 13:00 5.7° C wolkenlos
Di, 10.12. 7:00 5.6° C wolkenlos
Di, 10.12. 1:00 6.0° C fast wolkenlos
Mo, 09.12. 19:00 6.7° C wolkig
Mo, 09.12. 13:00 7.8° C bewölkt
Mo, 09.12. 7:00 6.0° C bewölkt
Mo, 09.12. 1:00 7.0° C wolkig
So, 08.12. 19:00 8.2° C Sprühregen
Ortszeit Temperatur Wetter
Di, 10.12. 16:00 5.1° C bewölkt
Di, 10.12. 15:50 5.1° C bewölkt
Di, 10.12. 15:40 5.1° C wolkig
Di, 10.12. 15:30 5.0° C leicht bewölkt
Di, 10.12. 15:20 5.0° C leicht bewölkt
Di, 10.12. 15:10 5.1° C fast wolkenlos
Di, 10.12. 15:00 5.5° C wolkenlos
Di, 10.12. 14:30 5.6° C wolkenlos
Di, 10.12. 14:00 5.9° C wolkenlos
Di, 10.12. 13:30 5.7° C wolkenlos
Di, 10.12. 13:00 5.7° C wolkenlos
Ortszeit Relative Feuchte Sichtweite
Di, 10.12. 13:00 74% 30 km
Di, 10.12. 7:00 69% 45 km
Di, 10.12. 1:00 66% 35 km
Mo, 09.12. 19:00 84% 35 km
Mo, 09.12. 13:00 73% 45 km
Mo, 09.12. 7:00 81% 40 km
Mo, 09.12. 1:00 79% 30 km
So, 08.12. 19:00 81% 29 km
Ortszeit Relative Feuchte Sichtweite
Di, 10.12. 16:00 76% 30 km
Di, 10.12. 15:50 76% -
Di, 10.12. 15:40 76% -
Di, 10.12. 15:30 75% 30 km
Di, 10.12. 15:20 75% -
Di, 10.12. 15:10 75% -
Di, 10.12. 15:00 73% 30 km
Di, 10.12. 14:30 72% 30 km
Di, 10.12. 14:00 71% 40 km
Di, 10.12. 13:30 72% 35 km
Di, 10.12. 13:00 74% 30 km
Ortszeit Niederschlagsmenge Niederschlagsart
Di, 10.12. 13:00 0.0 l/m2 in 6 Std. -
Di, 10.12. 7:00 0.5 l/m2 in 12 Std. -
Di, 10.12. 1:00 0.5 l/m2 in 6 Std. Schnee, Niederschlag
Mo, 09.12. 19:00 0.3 l/m2 in 12 Std. Regen
Mo, 09.12. 13:00 0.0 l/m2 in 6 Std. -
Mo, 09.12. 7:00 0.1 l/m2 in 12 Std. Regen
Mo, 09.12. 1:00 0.1 l/m2 in 6 Std. Regen
So, 08.12. 19:00 1 l/m2 in 12 Std. Regen
Ortszeit Niederschlagsmenge Niederschlagsart
Di, 10.12. 16:00 0.0 l/m2 in 1 Std. -
Di, 10.12. 15:50 keine Meldung -
Di, 10.12. 15:40 keine Meldung -
Di, 10.12. 15:30 0.0 l/m2 in 1 Std. -
Di, 10.12. 15:20 keine Meldung -
Di, 10.12. 15:10 keine Meldung -
Di, 10.12. 15:00 0.0 l/m2 in 1 Std. -
Di, 10.12. 14:30 0.0 l/m2 in 1 Std. -
Di, 10.12. 14:00 0.0 l/m2 in 1 Std. -
Di, 10.12. 13:30 0.0 l/m2 in 1 Std. -
Di, 10.12. 13:00 0.0 l/m2 in 1 Std. -
Ortszeit Stärke Spitze Richtung
km/h Bft. km/h Grad Sektor
Di, 10.12. 13:00 7 2 40 240° SW
Di, 10.12. 7:00 32 5 68 310° NW
Di, 10.12. 1:00 50 7 72 320° NW
Mo, 09.12. 19:00 25 4 40 270° W
Mo, 09.12. 13:00 18 3 43 210° SW
Mo, 09.12. 7:00 22 4 44 210° SW
Mo, 09.12. 1:00 20 4 48 210° SW
So, 08.12. 19:00 29 5 54 260° W
Ortszeit Stärke Spitze Richtung
km/h Bft. km/h Grad Sektor
Di, 10.12. 16:00 7 2 22 180° S
Di, 10.12. 15:50 7 2 - 180° S
Di, 10.12. 15:40 9 2 - 180° S
Di, 10.12. 15:30 9 2 20 190° S
Di, 10.12. 15:20 9 2 - 190° S
Di, 10.12. 15:10 13 3 - 200° S
Di, 10.12. 15:00 11 2 22 210° SW
Di, 10.12. 14:30 9 2 22 220° SW
Di, 10.12. 14:00 11 2 22 220° SW
Di, 10.12. 13:30 11 2 18 230° SW
Di, 10.12. 13:00 7 2 25 240° SW
Ortszeit Untergrenze Bedeckung Gattung
total tief tief mittel hoch
Di, 10.12. 13:00 - 0/8 0/8 - - -
Di, 10.12. 7:00 - 0/8 0/8 - - -
Di, 10.12. 1:00 990 m 1/8 1/8 - - -
Mo, 09.12. 19:00 1500 m 6/8 4/8 - - -
Mo, 09.12. 13:00 1230 m 7/8 7/8 - - -
Mo, 09.12. 7:00 1020 m 7/8 7/8 - - -
Mo, 09.12. 1:00 690 m 8/8 3/8 - - -
So, 08.12. 19:00 750 m 8/8 8/8 - - -
Ortszeit Bedeckungsgrad in Achtel und Wolkenuntergrenze
Di, 10.12. 16:00 6(1380m) 8(8400m)
Di, 10.12. 15:50 6(1380m) 8(8400m)
Di, 10.12. 15:40 4(1350m) 6(8400m) 7(9000m)
Di, 10.12. 15:30 4(8700m) 5(9000m) 5(8700m)
Di, 10.12. 15:20 4(8700m) 5(9000m)
Di, 10.12. 15:10 1(8700m)
Di, 10.12. 15:00 2(8700m)
Di, 10.12. 14:30 keine Wolken
Di, 10.12. 14:00 keine Wolken
Di, 10.12. 13:30 keine Wolken
Di, 10.12. 13:00 keine Wolken
Ortszeit Luftdruck NN (hPa) Tendenz (hPa in 3 Std.)
Di, 10.12. 13:00 1021 + 0,7
Di, 10.12. 7:00 1017 + 4,1
Di, 10.12. 1:00 1009 + 5,3
Mo, 09.12. 19:00 1000 + 3,1
Mo, 09.12. 13:00 995 + 0,2
Mo, 09.12. 7:00 993 + 0,5
Mo, 09.12. 1:00 992 - 0,6
So, 08.12. 19:00 993 + 1,0
Ortszeit Luftdruck NN (hPa) Tendenz (hPa in 3 Std.)
Di, 10.12. 16:00 1021 - 0,5
Di, 10.12. 15:50 1021 keine Meldung
Di, 10.12. 15:40 1021 keine Meldung
Di, 10.12. 15:30 1021 - 0,5
Di, 10.12. 15:20 1021 keine Meldung
Di, 10.12. 15:10 1021 keine Meldung
Di, 10.12. 15:00 1021 - 0,4
Di, 10.12. 14:30 1021 - 0,1
Di, 10.12. 14:00 1021 + 0,5
Di, 10.12. 13:30 1021 + 0,6
Di, 10.12. 13:00 1021 + 0,7
Ortszeit Schneehöhe (cm)
Di, 10.12. 13:00 0
Di, 10.12. 7:00 0
Di, 10.12. 1:00 0
Mo, 09.12. 19:00 0
Mo, 09.12. 13:00 0
Mo, 09.12. 7:00 0
Mo, 09.12. 1:00 0
So, 08.12. 19:00 0
Ortszeit Schneehöhe (cm)
Di, 10.12. 16:00 0
Di, 10.12. 15:50 0
Di, 10.12. 15:40 0
Di, 10.12. 15:30 0
Di, 10.12. 15:20 0
Di, 10.12. 15:10 0
Di, 10.12. 15:00 0
Di, 10.12. 14:30 0
Di, 10.12. 14:00 0
Di, 10.12. 13:30 0
Di, 10.12. 13:00 0
Link zu dieser Seite / Seite empfehlen

Das Wetter in ...